Time;durP1;ratioP1;P1;durP2;ratioP2;P2;SDS_P1;SDS_P2;PMS_P1;PMS_P2;Temp;Humidity;BMP_temperature;BMP_pressure;BME280_temperature;BME280_humidity;BME280_pressure;Samples;Min_cycle;Max_cycle;Signal;HPM_P1;HPM_P2
2023/10/11 00:01:29;;;;;;;44.60;19.33;;;17.30;99.90;;;;;;4954551;28;20511;-57
2023/10/11 00:03:58;;;;;;;46.30;20.13;;;17.40;99.90;;;;;;4967894;28;20038;-52
2023/10/11 00:06:25;;;;;;;43.95;19.55;;;17.40;99.90;;;;;;4962846;28;20423;-55
2023/10/11 00:08:54;;;;;;;41.35;19.98;;;17.30;99.90;;;;;;4965223;28;20285;-53
2023/10/11 00:11:27;;;;;;;34.28;18.27;;;17.30;99.90;;;;;;4952197;28;20046;-56
2023/10/11 00:13:54;;;;;;;43.30;18.63;;;17.30;99.90;;;;;;4968547;28;20079;-55
2023/10/11 00:16:21;;;;;;;41.20;19.00;;;17.30;99.90;;;;;;4951480;28;20047;-55
2023/10/11 00:18:49;;;;;;;41.40;19.42;;;17.30;99.90;;;;;;4968463;28;20047;-56
2023/10/11 00:21:18;;;;;;;42.20;18.77;;;17.30;99.90;;;;;;4966957;28;20080;-54
2023/10/11 00:23:46;;;;;;;40.20;18.63;;;17.30;99.90;;;;;;4965303;28;20038;-58
2023/10/11 00:26:14;;;;;;;42.13;18.83;;;17.30;99.90;;;;;;4966791;28;20050;-58
2023/10/11 00:28:40;;;;;;;42.40;17.33;;;17.30;99.90;;;;;;4967276;28;20055;-57
2023/10/11 00:31:13;;;;;;;41.53;18.38;;;17.30;99.90;;;;;;4966044;28;20054;-56
2023/10/11 00:33:39;;;;;;;48.88;17.73;;;17.30;99.90;;;;;;4976845;28;20138;-55
2023/10/11 00:36:06;;;;;;;40.42;19.25;;;17.30;99.90;;;;;;4967670;28;20553;-56
2023/10/11 00:38:32;;;;;;;38.08;17.67;;;17.30;99.90;;;;;;4965273;28;20542;-55
2023/10/11 00:41:01;;;;;;;39.80;17.98;;;17.30;99.90;;;;;;4965601;28;20035;-56
2023/10/11 00:43:34;;;;;;;43.05;16.83;;;17.30;99.90;;;;;;4963020;28;20506;-57
2023/10/11 00:46:02;;;;;;;43.35;17.58;;;17.30;99.90;;;;;;4968060;28;20105;-57
2023/10/11 00:48:30;;;;;;;36.83;16.77;;;17.30;99.90;;;;;;4968032;28;20093;-58
2023/10/11 00:50:56;;;;;;;41.15;18.63;;;17.30;99.90;;;;;;4951283;28;20046;-57
2023/10/11 00:53:26;;;;;;;38.00;17.02;;;17.30;99.90;;;;;;4967324;28;20061;-57
2023/10/11 00:55:57;;;;;;;45.50;18.05;;;17.30;99.90;;;;;;4965384;28;20043;-57
2023/10/11 00:58:23;;;;;;;40.40;19.33;;;17.20;99.90;;;;;;4966527;28;20414;-56
2023/10/11 01:00:49;;;;;;;32.63;15.40;;;17.30;99.90;;;;;;4967856;28;20124;-54
2023/10/11 01:03:17;;;;;;;42.08;16.65;;;17.20;99.90;;;;;;4964834;28;20122;-57
2023/10/11 01:05:45;;;;;;;37.83;16.77;;;17.20;99.90;;;;;;4967429;28;20046;-56
2023/10/11 01:08:13;;;;;;;31.42;15.52;;;17.20;99.90;;;;;;4933089;28;20057;-56
2023/10/11 01:10:39;;;;;;;48.67;16.42;;;17.20;99.90;;;;;;4965136;28;20042;-57
2023/10/11 01:13:05;;;;;;;37.00;14.32;;;17.20;99.90;;;;;;4951050;28;20414;-58
2023/10/11 01:15:33;;;;;;;32.72;16.42;;;17.20;99.90;;;;;;4966393;28;20034;-56
2023/10/11 01:17:58;;;;;;;34.40;15.77;;;17.20;99.90;;;;;;4966905;28;20081;-56
2023/10/11 01:20:26;;;;;;;35.13;16.88;;;17.20;99.90;;;;;;4968507;28;20082;-57
2023/10/11 01:22:52;;;;;;;39.90;15.75;;;17.20;99.90;;;;;;4966792;28;20116;-55
2023/10/11 01:25:20;;;;;;;43.08;17.30;;;17.20;99.90;;;;;;4964054;28;20039;-58
2023/10/11 01:27:49;;;;;;;37.78;16.20;;;17.20;99.90;;;;;;4966088;28;20054;-57
2023/10/11 01:30:15;;;;;;;36.67;16.73;;;17.20;99.90;;;;;;4951138;28;20048;-57
2023/10/11 01:32:41;;;;;;;40.75;16.30;;;17.20;99.90;;;;;;4966370;28;20047;-57
2023/10/11 01:35:19;;;;;;;33.10;15.02;;;17.20;99.90;;;;;;4966669;28;20387;-57
2023/10/11 01:37:45;;;;;;;31.33;14.32;;;17.20;99.90;;;;;;4967180;28;20035;-57
2023/10/11 01:40:20;;;;;;;34.53;14.32;;;17.20;99.90;;;;;;4968083;28;20051;-56
2023/10/11 01:42:49;;;;;;;30.13;14.48;;;17.20;99.90;;;;;;4966373;28;20042;-56
2023/10/11 01:45:18;;;;;;;33.05;14.10;;;17.20;99.90;;;;;;4948278;28;20047;-57
2023/10/11 01:47:47;;;;;;;42.90;15.65;;;17.20;99.90;;;;;;4966466;28;20047;-57
2023/10/11 01:50:15;;;;;;;35.83;14.32;;;17.20;99.90;;;;;;4963307;28;20043;-57
2023/10/11 01:52:41;;;;;;;37.47;15.93;;;17.10;99.90;;;;;;4959748;28;20054;-56
2023/10/11 01:55:10;;;;;;;34.28;13.98;;;17.10;99.90;;;;;;4950859;28;20042;-54
2023/10/11 01:57:45;;;;;;;35.08;14.30;;;17.10;99.90;;;;;;4965354;28;20059;-56
2023/10/11 02:00:15;;;;;;;25.30;12.32;;;17.10;99.90;;;;;;4964617;28;20043;-56
2023/10/11 02:02:52;;;;;;;38.75;14.27;;;17.10;99.90;;;;;;4963208;28;20051;-54
2023/10/11 02:05:21;;;;;;;33.97;13.45;;;17.10;99.90;;;;;;4966773;28;20058;-54
2023/10/11 02:07:46;;;;;;;28.60;13.10;;;17.10;99.90;;;;;;4961184;28;20093;-56
2023/10/11 02:10:12;;;;;;;32.53;13.68;;;17.10;99.90;;;;;;4966282;28;20078;-54
2023/10/11 02:12:45;;;;;;;38.13;13.90;;;17.10;99.90;;;;;;4961027;28;20475;-55
2023/10/11 02:15:21;;;;;;;30.33;12.52;;;17.10;99.90;;;;;;4966741;28;20089;-57
2023/10/11 02:17:51;;;;;;;40.17;13.25;;;17.10;99.90;;;;;;4949630;28;20414;-55
2023/10/11 02:20:21;;;;;;;34.30;12.88;;;17.10;99.90;;;;;;4967778;28;20065;-56
2023/10/11 02:22:51;;;;;;;33.25;12.68;;;17.10;99.90;;;;;;4968144;28;20042;-55
2023/10/11 02:25:24;;;;;;;30.88;12.40;;;17.10;99.90;;;;;;4966834;28;20046;-56
2023/10/11 02:27:51;;;;;;;33.22;13.10;;;17.10;99.90;;;;;;4963553;28;20065;-55
2023/10/11 02:30:22;;;;;;;36.53;13.55;;;17.00;99.90;;;;;;4967225;28;20055;-53
2023/10/11 02:32:58;;;;;;;28.75;12.32;;;17.10;99.90;;;;;;4969952;28;20046;-56
2023/10/11 02:35:26;;;;;;;31.25;13.20;;;17.10;99.90;;;;;;4967875;28;20047;-54
2023/10/11 02:37:59;;;;;;;32.30;12.48;;;17.10;99.90;;;;;;4961657;28;20058;-56
2023/10/11 02:40:25;;;;;;;28.17;12.30;;;17.10;99.90;;;;;;4971420;28;20137;-56
2023/10/11 02:42:56;;;;;;;34.15;12.25;;;17.10;99.90;;;;;;4967464;28;20534;-55
2023/10/11 02:45:22;;;;;;;32.58;12.63;;;17.00;99.90;;;;;;4966905;28;20058;-56
2023/10/11 02:48:10;;;;;;;32.75;13.32;;;17.00;99.90;;;;;;4963664;28;20502;-57
2023/10/11 02:50:36;;;;;;;28.02;12.77;;;17.10;99.90;;;;;;4963363;28;20477;-57
2023/10/11 02:53:12;;;;;;;30.13;11.02;;;17.10;99.90;;;;;;4949076;28;20098;-57
2023/10/11 02:55:38;;;;;;;36.63;13.20;;;17.10;99.90;;;;;;4961535;28;20078;-56
2023/10/11 02:58:07;;;;;;;28.77;12.27;;;17.00;99.90;;;;;;4947774;28;20043;-57
2023/10/11 03:00:34;;;;;;;31.13;11.75;;;17.10;99.90;;;;;;4960639;28;20038;-56
2023/10/11 03:03:00;;;;;;;28.92;11.75;;;17.10;99.90;;;;;;4963896;28;20510;-56
2023/10/11 03:05:29;;;;;;;35.13;12.05;;;17.00;99.90;;;;;;4965565;28;20105;-56
2023/10/11 03:08:13;;;;;;;31.70;11.68;;;17.10;99.90;;;;;;4966127;28;20050;-56
2023/10/11 03:10:56;;;;;;;35.22;12.43;;;17.10;99.90;;;;;;4969230;28;20138;-57
2023/10/11 03:13:29;;;;;;;27.80;12.43;;;17.00;99.90;;;;;;4985992;28;20050;-57
2023/10/11 03:15:56;;;;;;;28.10;10.93;;;17.10;99.90;;;;;;4969969;28;20055;-56
2023/10/11 03:18:32;;;;;;;31.75;11.90;;;17.00;99.90;;;;;;4961841;28;20035;-55
2023/10/11 03:21:08;;;;;;;32.70;11.88;;;17.10;99.90;;;;;;4968172;28;20047;-56
2023/10/11 03:23:45;;;;;;;27.88;11.73;;;17.10;99.90;;;;;;4984574;28;20470;-56
2023/10/11 03:26:22;;;;;;;30.40;12.57;;;17.10;99.90;;;;;;4968567;28;20541;-56
2023/10/11 03:28:57;;;;;;;23.70;11.05;;;17.00;99.90;;;;;;4968682;28;20695;-58
2023/10/11 03:31:28;;;;;;;32.63;10.95;;;17.00;99.90;;;;;;4967868;28;20043;-53
2023/10/11 03:33:57;;;;;;;29.55;10.95;;;17.10;99.90;;;;;;4968715;28;20294;-55
2023/10/11 03:36:43;;;;;;;31.73;11.93;;;17.00;99.90;;;;;;4969071;28;20054;-56
2023/10/11 03:39:13;;;;;;;23.80;10.70;;;17.00;99.90;;;;;;4950321;28;20306;-57
2023/10/11 03:41:45;;;;;;;32.70;12.25;;;17.00;99.90;;;;;;4968917;28;20498;-55
2023/10/11 03:44:20;;;;;;;32.25;12.27;;;17.00;99.90;;;;;;4968137;28;20047;-57
2023/10/11 03:46:54;;;;;;;26.88;10.52;;;17.00;99.90;;;;;;4981828;28;20224;-57
2023/10/11 03:51:50;;;;;;;37.70;11.95;;;17.00;99.90;;;;;;4968622;28;20065;-55
2023/10/11 03:54:23;;;;;;;29.85;13.05;;;17.00;99.90;;;;;;4968821;28;20047;-57
2023/10/11 03:56:55;;;;;;;26.67;11.03;;;17.00;99.90;;;;;;4967210;28;20109;-56
2023/10/11 03:59:28;;;;;;;27.80;11.32;;;17.00;99.90;;;;;;4964650;28;20031;-56
2023/10/11 04:01:58;;;;;;;24.38;10.57;;;17.00;99.90;;;;;;4967560;28;20078;-56
2023/10/11 04:04:25;;;;;;;28.75;11.82;;;17.00;99.90;;;;;;4965777;28;20081;-57
2023/10/11 04:06:51;;;;;;;31.33;10.55;;;17.00;99.90;;;;;;4961330;28;20146;-57
2023/10/11 04:09:37;;;;;;;23.60;10.02;;;17.00;99.90;;;;;;4967113;28;20339;-56
2023/10/11 04:12:10;;;;;;;31.27;11.85;;;17.00;99.90;;;;;;4966477;28;20529;-56
2023/10/11 04:14:40;;;;;;;33.73;12.47;;;17.00;99.90;;;;;;4966649;28;20329;-57
2023/10/11 04:17:19;;;;;;;28.83;11.93;;;17.00;99.90;;;;;;4968716;28;20054;-57
2023/10/11 04:19:44;;;;;;;30.05;11.57;;;17.00;99.90;;;;;;4964433;28;20402;-57
2023/10/11 04:22:13;;;;;;;31.05;12.00;;;17.00;99.90;;;;;;4968274;28;20045;-57
2023/10/11 04:24:40;;;;;;;33.97;12.45;;;17.00;99.90;;;;;;4965223;28;20058;-55
2023/10/11 04:29:51;;;;;;;27.13;11.27;;;17.00;99.90;;;;;;4966903;28;20046;-57
2023/10/11 04:38:01;;;;;;;25.70;11.05;;;17.00;99.90;;;;;;4967355;28;20043;-57
2023/10/11 04:43:40;;;;;;;22.08;10.80;;;16.90;99.90;;;;;;4965355;28;20054;-58
2023/10/11 04:45:59;;;;;;;30.45;11.55;;;16.90;99.90;;;;;;4966291;28;20089;-55
2023/10/11 04:48:29;;;;;;;30.55;11.90;;;16.90;99.90;;;;;;4967547;28;20046;-57
2023/10/11 04:59:06;;;;;;;34.25;12.38;;;16.90;99.90;;;;;;4948557;28;20086;-57
2023/10/11 05:04:27;;;;;;;31.58;10.80;;;16.90;99.90;;;;;;4967738;28;20046;-56
2023/10/11 05:06:53;;;;;;;30.17;11.82;;;16.90;99.90;;;;;;4947533;28;20046;-57
2023/10/11 05:12:29;;;;;;;26.73;11.40;;;16.90;99.90;;;;;;4966049;28;20046;-56
2023/10/11 05:14:40;;;;;;;28.75;11.35;;;16.90;99.90;;;;;;4958953;28;20494;-57
2023/10/11 05:20:20;;;;;;;28.05;11.50;;;16.90;99.90;;;;;;4964779;28;20055;-57
2023/10/11 05:28:27;;;;;;;28.08;11.70;;;16.80;99.90;;;;;;4965244;28;20043;-56
2023/10/11 05:30:44;;;;;;;29.52;11.25;;;16.80;99.90;;;;;;4963957;28;20042;-56
2023/10/11 05:33:41;;;;;;;27.75;11.02;;;16.90;99.90;;;;;;4967104;28;20433;-56
2023/10/11 05:52:37;;;;;;;25.95;11.35;;;17.00;99.90;;;;;;4967113;28;20272;-55
2023/10/11 05:55:06;;;;;;;25.85;12.70;;;17.00;99.90;;;;;;4967048;28;20045;-57
2023/10/11 05:57:32;;;;;;;36.10;12.63;;;17.00;99.90;;;;;;4966919;28;20406;-57
2023/10/11 06:00:10;;;;;;;29.25;11.88;;;17.00;99.90;;;;;;4960766;28;20116;-57
2023/10/11 06:02:38;;;;;;;29.67;12.35;;;17.00;99.90;;;;;;4936425;28;20054;-58
2023/10/11 06:05:10;;;;;;;28.20;11.38;;;17.00;99.90;;;;;;4967818;28;20089;-56
2023/10/11 06:07:37;;;;;;;33.97;13.10;;;17.10;99.90;;;;;;4965600;28;20034;-57
2023/10/11 06:10:06;;;;;;;31.95;13.05;;;17.10;99.90;;;;;;4964787;28;20053;-57
2023/10/11 06:12:33;;;;;;;33.25;11.85;;;17.10;99.90;;;;;;4945851;28;20190;-57
2023/10/11 06:15:16;;;;;;;30.40;13.50;;;17.10;99.90;;;;;;4963886;28;20061;-57
2023/10/11 06:17:41;;;;;;;34.55;13.57;;;17.10;99.90;;;;;;4965099;28;20231;-56
2023/10/11 06:20:27;;;;;;;25.75;12.82;;;17.10;99.90;;;;;;4966651;28;20030;-55
2023/10/11 06:22:56;;;;;;;27.58;12.20;;;17.10;99.90;;;;;;4965585;28;20426;-57
2023/10/11 06:25:40;;;;;;;29.05;11.52;;;17.20;99.90;;;;;;4947644;28;20351;-56
2023/10/11 06:28:13;;;;;;;26.73;12.43;;;17.20;99.90;;;;;;4962053;28;20072;-57
2023/10/11 06:30:42;;;;;;;27.27;12.57;;;17.20;99.90;;;;;;4964098;28;20051;-56
2023/10/11 06:33:11;;;;;;;21.55;11.55;;;17.20;99.90;;;;;;4960444;28;20066;-57
2023/10/11 06:35:45;;;;;;;36.78;12.80;;;17.20;99.90;;;;;;4966382;28;20540;-57
2023/10/11 06:38:14;;;;;;;27.58;12.40;;;17.20;99.90;;;;;;4962479;28;20074;-57
2023/10/11 06:40:39;;;;;;;27.02;12.77;;;17.20;99.90;;;;;;4969600;28;20167;-57
2023/10/11 06:43:12;;;;;;;30.42;12.40;;;17.20;99.90;;;;;;4951027;28;20106;-58
2023/10/11 06:45:40;;;;;;;27.30;12.50;;;17.30;99.90;;;;;;4967595;28;20047;-58
2023/10/11 06:48:06;;;;;;;32.13;13.63;;;17.30;99.90;;;;;;4968932;28;20048;-57
2023/10/11 06:50:42;;;;;;;27.67;12.43;;;17.30;99.90;;;;;;4968591;28;20101;-55
2023/10/11 06:53:09;;;;;;;27.45;12.55;;;17.30;99.90;;;;;;4954812;28;20427;-58
2023/10/11 06:55:47;;;;;;;31.15;13.48;;;17.30;99.90;;;;;;4971578;28;20046;-57
2023/10/11 06:58:19;;;;;;;33.55;12.07;;;17.30;99.90;;;;;;4967977;28;20525;-57
2023/10/11 07:00:53;;;;;;;32.92;12.48;;;17.30;99.90;;;;;;4968759;28;20577;-57
2023/10/11 07:06:10;;;;;;;23.60;11.65;;;17.40;99.90;;;;;;4969328;28;20078;-57
2023/10/11 07:08:36;;;;;;;30.45;13.90;;;17.40;99.90;;;;;;4967232;28;20050;-56
2023/10/11 07:16:19;;;;;;;28.80;12.40;;;17.50;99.90;;;;;;4968542;28;20121;-57
2023/10/11 07:18:50;;;;;;;31.48;11.85;;;17.50;99.90;;;;;;4953495;28;20035;-57
2023/10/11 07:21:19;;;;;;;29.80;13.15;;;17.50;99.90;;;;;;4970510;28;20047;-57
2023/10/11 07:28:59;;;;;;;30.10;13.65;;;17.60;99.90;;;;;;4965859;28;20130;-57
2023/10/11 07:31:32;;;;;;;28.98;12.60;;;17.60;99.90;;;;;;4962915;28;20637;-58
2023/10/11 07:34:05;;;;;;;26.13;12.57;;;17.60;99.90;;;;;;4969254;28;20046;-57
2023/10/11 07:36:32;;;;;;;25.75;11.90;;;17.70;99.90;;;;;;4969303;28;20069;-56
2023/10/11 07:39:14;;;;;;;24.38;12.45;;;17.70;99.90;;;;;;4969374;28;20115;-56
2023/10/11 07:41:43;;;;;;;22.17;12.77;;;17.70;99.90;;;;;;4952598;28;20081;-55
2023/10/11 07:44:10;;;;;;;19.88;11.70;;;17.70;99.90;;;;;;4952250;28;20566;-55
2023/10/11 07:46:40;;;;;;;26.67;12.20;;;17.70;99.90;;;;;;4969154;28;20042;-56
2023/10/11 07:49:06;;;;;;;25.58;11.50;;;17.70;99.90;;;;;;4969153;28;20450;-57
2023/10/11 07:51:36;;;;;;;26.02;12.68;;;17.80;99.90;;;;;;4965076;28;20118;-57
2023/10/11 07:54:19;;;;;;;23.95;12.73;;;17.80;99.90;;;;;;4971323;28;20105;-57
2023/10/11 07:56:46;;;;;;;23.45;11.73;;;17.80;99.90;;;;;;4969001;28;20047;-55
2023/10/11 07:59:12;;;;;;;27.25;11.75;;;17.80;99.90;;;;;;4950708;28;20047;-59
2023/10/11 08:01:47;;;;;;;20.77;12.25;;;17.80;99.90;;;;;;4967223;28;20055;-58
2023/10/11 08:04:29;;;;;;;28.75;11.75;;;17.80;99.90;;;;;;4968725;28;20129;-58
2023/10/11 08:06:59;;;;;;;22.83;12.05;;;17.80;99.90;;;;;;4967143;28;20120;-58
2023/10/11 08:09:45;;;;;;;19.85;11.30;;;17.80;99.90;;;;;;4966667;28;20042;-58
2023/10/11 08:12:15;;;;;;;24.25;11.60;;;17.80;99.90;;;;;;4960493;28;20039;-58
2023/10/11 08:14:44;;;;;;;24.88;12.00;;;17.70;99.90;;;;;;4967013;28;20065;-58
2023/10/11 08:17:19;;;;;;;23.65;10.88;;;17.70;99.90;;;;;;4965215;28;20064;-57
2023/10/11 08:19:47;;;;;;;25.35;13.05;;;17.70;99.90;;;;;;4968799;28;20047;-57
2023/10/11 08:22:14;;;;;;;27.05;11.60;;;17.70;99.90;;;;;;4969821;28;20117;-58
2023/10/11 08:24:47;;;;;;;23.63;10.57;;;17.70;99.90;;;;;;4962006;28;20494;-59
2023/10/11 08:27:14;;;;;;;18.65;10.25;;;17.70;99.90;;;;;;4966297;28;20059;-59
2023/10/11 08:29:43;;;;;;;20.50;9.82;;;17.70;99.90;;;;;;4967695;28;20053;-57
2023/10/11 08:32:12;;;;;;;15.05;8.63;;;17.70;99.90;;;;;;4966675;28;21967;-54
2023/10/11 08:34:46;;;;;;;17.67;9.15;;;17.60;99.90;;;;;;4960467;28;20237;-56
2023/10/11 08:37:12;;;;;;;14.30;8.02;;;17.60;99.90;;;;;;4934239;28;20051;-56
2023/10/11 08:39:44;;;;;;;15.73;9.52;;;17.60;99.90;;;;;;4946523;28;20054;-57
2023/10/11 08:42:16;;;;;;;13.88;8.38;;;17.60;99.90;;;;;;4946977;28;20114;-58
2023/10/11 08:44:46;;;;;;;13.20;8.43;;;17.60;99.90;;;;;;4966290;28;20498;-56
2023/10/11 08:47:19;;;;;;;13.48;8.85;;;17.60;99.90;;;;;;4952669;28;20513;-57
2023/10/11 08:49:48;;;;;;;14.68;9.07;;;17.60;99.90;;;;;;4966223;28;20259;-58
2023/10/11 08:52:23;;;;;;;14.23;7.80;;;17.70;99.90;;;;;;4965388;28;20122;-57
2023/10/11 08:54:49;;;;;;;16.23;8.50;;;17.70;99.90;;;;;;4967424;28;20457;-56
2023/10/11 08:57:25;;;;;;;13.00;7.95;;;17.70;99.90;;;;;;4968074;28;20035;-58
2023/10/11 08:59:58;;;;;;;15.15;8.60;;;17.80;99.90;;;;;;4950659;28;20384;-56
2023/10/11 09:02:26;;;;;;;17.67;8.90;;;17.90;99.90;;;;;;4967103;28;20034;-58
2023/10/11 09:05:28;;;;;;;14.00;7.55;;;17.90;99.90;;;;;;4967539;28;20514;-58
2023/10/11 09:07:54;;;;;;;14.32;7.82;;;17.90;99.90;;;;;;4963398;28;20362;-56
2023/10/11 09:10:30;;;;;;;16.05;8.40;;;18.00;99.90;;;;;;4964457;28;20122;-57
2023/10/11 09:12:57;;;;;;;12.00;7.47;;;18.00;99.90;;;;;;4968724;28;20678;-58
2023/10/11 09:15:40;;;;;;;16.40;8.77;;;18.00;99.90;;;;;;4962467;28;20055;-57
2023/10/11 09:18:16;;;;;;;13.73;9.00;;;18.00;99.90;;;;;;4967392;28;20042;-60
2023/10/11 09:23:37;;;;;;;13.77;8.35;;;18.10;99.90;;;;;;4966610;28;20062;-59
2023/10/11 09:26:05;;;;;;;19.05;9.32;;;18.10;99.90;;;;;;4964057;28;20050;-58
2023/10/11 09:28:34;;;;;;;14.63;8.40;;;18.10;99.90;;;;;;4967072;28;20039;-58
2023/10/11 09:31:11;;;;;;;18.60;8.50;;;18.10;99.90;;;;;;4966705;28;20414;-59
2023/10/11 09:33:40;;;;;;;16.42;8.82;;;18.10;99.90;;;;;;4965753;28;20065;-59
2023/10/11 09:36:07;;;;;;;12.00;7.90;;;18.20;99.90;;;;;;4962780;28;20042;-59
2023/10/11 09:38:39;;;;;;;15.30;8.35;;;18.20;99.90;;;;;;4957659;28;20058;-59
2023/10/11 09:41:08;;;;;;;16.08;8.40;;;18.20;99.90;;;;;;4966166;28;20134;-59
2023/10/11 09:43:42;;;;;;;12.95;6.93;;;18.30;99.90;;;;;;4950497;28;20122;-59
2023/10/11 09:46:11;;;;;;;11.95;7.60;;;18.30;99.90;;;;;;4963029;28;20046;-60
2023/10/11 09:48:41;;;;;;;12.55;7.55;;;18.30;99.90;;;;;;4950748;28;20082;-58
2023/10/11 09:51:09;;;;;;;9.65;7.03;;;18.30;99.90;;;;;;4965471;28;20043;-59
2023/10/11 09:53:42;;;;;;;17.77;7.38;;;18.40;99.90;;;;;;4968381;28;20043;-58
2023/10/11 09:56:30;;;;;;;15.07;6.78;;;18.40;99.90;;;;;;4967550;28;20035;-56
2023/10/11 09:59:23;;;;;;;13.32;7.53;;;18.40;99.90;;;;;;4963200;28;20404;-59
2023/10/11 10:02:02;;;;;;;14.75;6.80;;;18.30;99.90;;;;;;4969620;28;20051;-60
2023/10/11 10:04:50;;;;;;;13.07;6.53;;;18.30;99.90;;;;;;4965708;28;20057;-58
2023/10/11 10:07:26;;;;;;;12.75;6.40;;;18.30;99.90;;;;;;4964914;28;20043;-59
2023/10/11 10:09:53;;;;;;;10.13;6.20;;;18.10;99.90;;;;;;4962500;28;20050;-58
2023/10/11 10:12:21;;;;;;;12.45;6.95;;;18.10;99.90;;;;;;4966191;28;20061;-58
2023/10/11 10:14:50;;;;;;;13.50;5.88;;;18.10;99.90;;;;;;4965668;28;20601;-59
2023/10/11 10:17:16;;;;;;;14.07;6.55;;;18.10;99.90;;;;;;4957945;28;20045;-59
2023/10/11 10:19:48;;;;;;;16.88;7.22;;;18.10;99.90;;;;;;4968272;28;20122;-58
2023/10/11 10:22:27;;;;;;;10.98;6.82;;;18.20;99.90;;;;;;4951897;28;20517;-57
2023/10/11 10:24:56;;;;;;;14.40;6.75;;;18.30;99.90;;;;;;4967577;28;20662;-59
2023/10/11 10:27:34;;;;;;;13.05;6.93;;;18.40;99.90;;;;;;4964940;28;20152;-60
2023/10/11 10:30:05;;;;;;;12.57;6.68;;;18.60;99.90;;;;;;4971213;28;20690;-59
2023/10/11 10:32:32;;;;;;;13.65;5.88;;;18.80;99.90;;;;;;4968558;28;20085;-58
2023/10/11 10:35:18;;;;;;;12.27;6.20;;;19.00;99.90;;;;;;4965707;28;20196;-59
2023/10/11 10:37:47;;;;;;;13.13;5.78;;;19.30;99.90;;;;;;4968741;28;20047;-59
2023/10/11 10:40:18;;;;;;;14.15;5.70;;;19.50;99.90;;;;;;4966069;28;20698;-55
2023/10/11 10:43:08;;;;;;;10.48;5.28;;;19.60;99.90;;;;;;4963629;28;20664;-58
2023/10/11 10:45:35;;;;;;;9.45;4.53;;;19.60;99.90;;;;;;4957320;28;20082;-57
2023/10/11 10:48:19;;;;;;;10.93;5.05;;;19.50;99.90;;;;;;4965894;28;20043;-59
2023/10/11 10:50:50;;;;;;;11.40;4.60;;;19.40;99.90;;;;;;4965537;28;20097;-57
2023/10/11 10:53:17;;;;;;;12.70;5.13;;;19.30;99.90;;;;;;4965957;28;20655;-58
2023/10/11 10:55:46;;;;;;;11.18;4.57;;;19.10;99.90;;;;;;4950327;28;20288;-57
2023/10/11 10:58:22;;;;;;;11.77;4.80;;;19.10;99.90;;;;;;4978600;28;20049;-59
2023/10/11 11:00:54;;;;;;;13.13;5.25;;;19.10;99.90;;;;;;4980434;28;20594;-57
2023/10/11 11:03:22;;;;;;;10.40;4.65;;;19.10;99.90;;;;;;4945875;28;20050;-57
2023/10/11 11:05:55;;;;;;;10.73;5.05;;;19.10;99.90;;;;;;4948731;28;20086;-55
2023/10/11 11:08:27;;;;;;;10.93;4.50;;;19.20;99.90;;;;;;4958333;28;20090;-57
2023/10/11 11:11:19;;;;;;;10.45;4.40;;;19.20;99.90;;;;;;4950419;28;20071;-58
2023/10/11 11:13:54;;;;;;;12.40;5.15;;;19.20;99.90;;;;;;4963350;28;20051;-58
2023/10/11 11:16:29;;;;;;;12.52;4.80;;;19.30;99.90;;;;;;4962750;28;20053;-59
2023/10/11 11:19:00;;;;;;;11.55;4.65;;;19.20;99.90;;;;;;4965465;28;20055;-57
2023/10/11 11:21:29;;;;;;;12.05;4.47;;;19.20;99.90;;;;;;4965718;28;20077;-57
2023/10/11 11:24:14;;;;;;;11.43;4.60;;;19.20;99.90;;;;;;4963842;28;20149;-58
2023/10/11 11:26:40;;;;;;;11.73;4.97;;;19.20;99.90;;;;;;4953173;28;20061;-60
2023/10/11 11:29:11;;;;;;;8.88;4.22;;;19.10;99.90;;;;;;4964634;28;20046;-59
2023/10/11 11:31:53;;;;;;;6.93;4.45;;;19.10;99.90;;;;;;4969480;28;20062;-57
2023/10/11 11:34:37;;;;;;;11.30;4.93;;;19.10;99.90;;;;;;4950026;28;20051;-58
2023/10/11 11:37:08;;;;;;;10.98;4.22;;;19.10;99.90;;;;;;4952204;28;20509;-60
2023/10/11 11:39:39;;;;;;;10.52;4.80;;;19.10;99.90;;;;;;4967544;28;20082;-59
2023/10/11 11:42:48;;;;;;;9.20;4.28;;;19.10;99.90;;;;;;4967825;28;20046;-59
2023/10/11 11:44:55;;;;;;;9.10;4.50;;;19.10;99.90;;;;;;4963073;28;20047;-60
2023/10/11 11:47:23;;;;;;;11.88;4.63;;;19.10;99.90;;;;;;4968835;28;20408;-60
2023/10/11 11:49:49;;;;;;;11.57;5.32;;;19.20;99.90;;;;;;4966708;28;20039;-60
2023/10/11 11:52:17;;;;;;;11.18;4.55;;;19.20;99.90;;;;;;4966814;28;20044;-59
2023/10/11 11:54:44;;;;;;;10.65;4.20;;;19.30;99.90;;;;;;4968650;28;20043;-60
2023/10/11 11:57:10;;;;;;;10.55;4.70;;;19.40;99.90;;;;;;4948816;28;20104;-59
2023/10/11 11:59:37;;;;;;;9.48;4.53;;;19.30;99.90;;;;;;4967055;28;20050;-59
2023/10/11 12:02:06;;;;;;;9.73;4.53;;;19.20;99.90;;;;;;4967648;28;20305;-59
2023/10/11 12:04:34;;;;;;;11.93;4.80;;;19.30;99.90;;;;;;4966034;28;20406;-58
2023/10/11 12:07:09;;;;;;;12.55;4.50;;;19.20;99.90;;;;;;4966489;28;20476;-59
2023/10/11 12:09:37;;;;;;;10.00;4.70;;;19.20;99.90;;;;;;4953349;28;20038;-60
2023/10/11 12:12:05;;;;;;;11.63;4.28;;;19.20;99.90;;;;;;4969052;28;20435;-59
2023/10/11 12:14:37;;;;;;;11.27;4.80;;;19.20;99.90;;;;;;4950162;28;20379;-60
2023/10/11 12:17:15;;;;;;;14.68;4.30;;;19.30;99.90;;;;;;4969031;28;20183;-59
2023/10/11 12:19:41;;;;;;;12.23;3.95;;;19.30;99.90;;;;;;4952437;28;20074;-60
2023/10/11 12:22:14;;;;;;;13.90;4.35;;;19.20;99.90;;;;;;4967208;28;20442;-58
2023/10/11 12:24:46;;;;;;;9.60;4.43;;;19.20;99.90;;;;;;4967068;28;20113;-59
2023/10/11 12:27:12;;;;;;;12.30;5.47;;;19.20;99.90;;;;;;4945342;28;20039;-58
2023/10/11 12:29:38;;;;;;;14.52;4.40;;;19.20;99.90;;;;;;4966901;28;20517;-58
2023/10/11 12:32:07;;;;;;;8.77;4.10;;;19.20;99.90;;;;;;4966019;28;20520;-60
2023/10/11 12:34:33;;;;;;;10.50;4.28;;;19.10;99.90;;;;;;4970963;28;20053;-60
2023/10/11 12:37:02;;;;;;;13.57;4.47;;;19.20;99.90;;;;;;4966642;28;20042;-59
2023/10/11 12:39:33;;;;;;;10.77;5.15;;;19.20;99.90;;;;;;4962464;28;20534;-58
2023/10/11 12:42:01;;;;;;;13.40;4.25;;;19.30;99.90;;;;;;4964178;28;20273;-59
2023/10/11 12:44:28;;;;;;;10.77;4.43;;;19.30;99.90;;;;;;4952075;28;20050;-60
2023/10/11 12:46:58;;;;;;;13.43;4.50;;;19.30;99.90;;;;;;4952475;28;20050;-58
2023/10/11 12:49:24;;;;;;;13.02;4.43;;;19.30;99.90;;;;;;4966805;28;20046;-57
2023/10/11 12:51:50;;;;;;;14.18;4.60;;;19.30;99.90;;;;;;4969979;28;20043;-58
2023/10/11 12:54:19;;;;;;;11.07;4.93;;;19.30;99.90;;;;;;4967737;28;20043;-58
2023/10/11 12:56:45;;;;;;;14.00;5.22;;;19.30;99.90;;;;;;4969727;28;20490;-59
2023/10/11 12:59:16;;;;;;;14.98;5.07;;;19.20;99.90;;;;;;4964795;28;20046;-60
2023/10/11 13:01:55;;;;;;;17.27;5.22;;;19.30;99.90;;;;;;4950744;28;20174;-59
2023/10/11 13:04:30;;;;;;;12.25;4.78;;;19.40;99.90;;;;;;4965308;28;20265;-59
2023/10/11 13:06:59;;;;;;;13.18;4.82;;;19.40;99.90;;;;;;4963764;28;20054;-59
2023/10/11 13:09:27;;;;;;;11.68;4.32;;;19.50;99.90;;;;;;4972672;28;20039;-59
2023/10/11 13:11:57;;;;;;;13.80;5.05;;;19.50;99.90;;;;;;4967463;28;20051;-59
2023/10/11 13:14:24;;;;;;;15.57;4.82;;;19.60;99.90;;;;;;4963968;28;20043;-59
2023/10/11 13:17:08;;;;;;;11.68;4.03;;;19.60;99.90;;;;;;4970441;28;20052;-56
2023/10/11 13:19:33;;;;;;;;;;;19.60;99.90;;;;;;4966519;28;20039;-59
2023/10/11 13:21:59;;;;;;;10.20;4.63;;;19.60;99.90;;;;;;4966762;28;20349;-58
2023/10/11 13:24:26;;;;;;;9.68;4.15;;;19.60;99.90;;;;;;4964986;28;20077;-60
2023/10/11 13:26:57;;;;;;;14.10;4.88;;;19.60;99.90;;;;;;4967503;28;20494;-57
2023/10/11 13:29:24;;;;;;;12.10;4.95;;;19.60;99.90;;;;;;4955058;28;20537;-58
2023/10/11 13:31:59;;;;;;;14.63;4.97;;;19.50;99.90;;;;;;4967279;28;20046;-59
2023/10/11 13:34:29;;;;;;;14.60;6.20;;;19.50;99.90;;;;;;4965203;28;20473;-57
2023/10/11 13:36:58;;;;;;;13.35;5.63;;;19.50;99.90;;;;;;4966960;28;20046;-59
2023/10/11 13:39:27;;;;;;;11.73;5.65;;;19.60;99.90;;;;;;4966634;28;20112;-58
2023/10/11 13:41:57;;;;;;;15.80;5.63;;;19.60;99.90;;;;;;4965050;28;20038;-59
2023/10/11 13:44:25;;;;;;;11.90;5.07;;;19.60;99.90;;;;;;4966719;28;20046;-59
2023/10/11 13:46:55;;;;;;;12.90;5.20;;;19.70;99.90;;;;;;4967717;28;20050;-60
2023/10/11 13:49:25;;;;;;;16.05;4.90;;;19.70;99.90;;;;;;4968056;28;20046;-58
2023/10/11 13:51:59;;;;;;;11.77;4.75;;;19.70;99.90;;;;;;4964790;28;20047;-58
2023/10/11 13:54:31;;;;;;;10.15;5.00;;;19.60;99.90;;;;;;4964639;28;20050;-60
2023/10/11 13:57:07;;;;;;;12.97;4.40;;;19.60;99.90;;;;;;4969137;28;20106;-57
2023/10/11 13:59:37;;;;;;;15.35;5.05;;;19.60;99.90;;;;;;4968576;28;20285;-59